Time;durP1;ratioP1;P1;durP2;ratioP2;P2;SDS_P1;SDS_P2;PMS_P1;PMS_P2;Temp;Humidity;BMP_temperature;BMP_pressure;BME280_temperature;BME280_humidity;BME280_pressure;Samples;Min_cycle;Max_cycle;Signal;HPM_P1;HPM_P2
2023/08/17 00:03:32;;;;;;;6.15;3.80;;;;;;;26.31;54.33;101203.59;21074068;28;20051;-61
2023/08/17 00:13:33;;;;;;;6.55;3.58;;;;;;;26.47;54.34;101206.94;21073103;28;20024;-59
2023/08/17 00:23:34;;;;;;;8.48;4.35;;;;;;;26.42;55.38;101192.16;21073374;28;20056;-59
2023/08/17 00:33:36;;;;;;;5.60;3.55;;;;;;;26.60;55.85;101222.13;21076175;28;20048;-59
2023/08/17 00:43:37;;;;;;;5.68;3.40;;;;;;;26.69;55.92;101231.47;21077797;28;20044;-58
2023/08/17 00:53:39;;;;;;;5.10;3.22;;;;;;;26.81;55.54;101247.78;21067487;28;20052;-58
2023/08/17 01:03:41;;;;;;;3.53;3.10;;;;;;;26.92;54.93;101265.25;21069984;28;20483;-59
2023/08/17 01:14:04;;;;;;;4.53;3.20;;;;;;;26.94;54.90;101271.34;21064796;28;20040;-59
2023/08/17 01:24:06;;;;;;;4.22;3.10;;;;;;;27.02;54.58;101285.50;21067036;28;20031;-60
2023/08/17 01:34:13;;;;;;;4.75;3.30;;;;;;;27.15;54.19;101288.63;21037636;28;21813;-59
2023/08/17 01:44:14;;;;;;;3.70;3.10;;;;;;;27.27;53.88;101292.56;21052402;28;20040;-59
2023/08/17 01:54:16;;;;;;;4.70;3.17;;;;;;;26.80;52.65;101293.84;21071698;28;20045;-59
2023/08/17 02:04:19;;;;;;;6.72;3.40;;;;;;;26.40;52.29;101278.66;21066740;28;20040;-57
2023/08/17 02:14:21;;;;;;;4.53;3.50;;;;;;;26.29;52.14;101273.19;21048931;28;20065;-59
2023/08/17 02:24:22;;;;;;;4.10;3.08;;;;;;;26.19;52.03;101287.44;21060786;28;20044;-59
2023/08/17 02:34:24;;;;;;;3.53;3.22;;;;;;;26.09;52.01;101284.81;21083844;28;20052;-57
2023/08/17 02:44:27;;;;;;;3.20;2.80;;;;;;;26.04;52.03;101291.34;21078488;28;20829;-57
2023/08/17 02:54:28;;;;;;;4.03;3.35;;;;;;;25.97;51.73;101292.88;21076218;28;20122;-58
2023/08/17 03:04:30;;;;;;;3.75;3.00;;;;;;;25.89;52.90;101294.44;21078156;28;20449;-55
2023/08/17 03:14:31;;;;;;;8.00;3.63;;;;;;;26.18;56.61;101297.00;21068447;28;20041;-57
2023/08/17 03:24:32;;;;;;;4.57;3.40;;;;;;;26.24;56.92;101276.09;21079380;28;20040;-58
2023/08/17 03:34:34;;;;;;;4.60;3.67;;;;;;;26.63;57.23;101300.09;21077704;28;20036;-58
2023/08/17 03:44:35;;;;;;;5.05;3.35;;;;;;;26.77;57.08;101298.13;21075193;28;20097;-58
2023/08/17 03:54:36;;;;;;;6.18;3.95;;;;;;;26.88;57.07;101303.50;21063048;28;20041;-58
2023/08/17 04:04:38;;;;;;;4.78;4.32;;;;;;;26.89;57.25;101286.34;21067056;28;20092;-58
2023/08/17 04:14:39;;;;;;;6.32;4.85;;;;;;;27.04;56.95;101291.66;21078604;28;20102;-58
2023/08/17 04:24:46;;;;;;;7.47;4.40;;;;;;;27.10;56.96;101298.00;21073968;28;20036;-59
2023/08/17 04:34:48;;;;;;;6.93;4.60;;;;;;;27.18;56.56;101302.06;21072625;28;20036;-58
2023/08/17 04:44:49;;;;;;;5.10;4.00;;;;;;;27.24;56.53;101298.81;21068294;28;20044;-58
2023/08/17 04:54:53;;;;;;;5.65;4.90;;;;;;;27.26;56.25;101292.88;21069781;28;20044;-59
2023/08/17 05:04:58;;;;;;;4.38;3.53;;;;;;;27.32;56.31;101294.44;21060227;28;20040;-59
2023/08/17 05:15:00;;;;;;;4.85;3.58;;;;;;;27.35;56.42;101303.06;21068586;28;20403;-58
2023/08/17 05:25:04;;;;;;;5.00;3.38;;;;;;;27.39;56.11;101293.97;21066759;28;20032;-61
2023/08/17 05:35:06;;;;;;;6.95;3.80;;;;;;;27.46;55.96;101289.59;21087391;28;20090;-59
2023/08/17 05:45:08;;;;;;;4.15;3.75;;;;;;;27.50;55.93;101285.00;21091776;28;20048;-58
2023/08/17 05:55:09;;;;;;;4.13;3.83;;;;;;;27.51;55.88;101297.91;21091146;28;20109;-58
2023/08/17 06:05:11;;;;;;;4.10;3.70;;;;;;;27.55;55.71;101300.91;21049970;28;20070;-58
2023/08/17 06:15:13;;;;;;;4.20;3.80;;;;;;;27.60;55.92;101314.84;21080385;28;20040;-58
2023/08/17 06:25:15;;;;;;;3.95;3.58;;;;;;;27.63;55.55;101314.22;21079608;28;20052;-58
2023/08/17 06:35:16;;;;;;;4.28;3.88;;;;;;;27.61;55.43;101305.25;21079982;28;20048;-59
2023/08/17 06:45:18;;;;;;;4.18;3.78;;;;;;;27.67;55.39;101312.41;21077764;28;20032;-59
2023/08/17 06:55:19;;;;;;;3.90;3.53;;;;;;;27.66;55.26;101296.69;21079928;28;20128;-59
2023/08/17 07:05:21;;;;;;;3.50;3.20;;;;;;;27.70;55.31;101306.16;21067323;28;20098;-57
2023/08/17 07:15:22;;;;;;;3.20;2.90;;;;;;;27.74;55.04;101292.34;21072773;28;20048;-58
2023/08/17 07:25:23;;;;;;;3.88;3.45;;;;;;;27.76;54.99;101295.63;21075707;28;20047;-59
2023/08/17 07:35:25;;;;;;;3.58;3.28;;;;;;;27.75;55.05;101294.81;21074451;28;20399;-59
2023/08/17 07:45:26;;;;;;;3.63;3.33;;;;;;;27.80;54.88;101291.88;21071088;28;20036;-59
2023/08/17 07:55:30;;;;;;;3.45;3.15;;;;;;;27.82;54.64;101288.75;21072955;28;20070;-59
2023/08/17 08:05:32;;;;;;;3.13;2.83;;;;;;;27.80;54.66;101275.00;21068165;28;20117;-59
2023/08/17 08:15:34;;;;;;;3.60;3.30;;;;;;;27.81;54.81;101268.25;21065956;28;20556;-58
2023/08/17 08:25:35;;;;;;;3.15;2.72;;;;;;;27.83;54.79;101271.56;21062212;28;20491;-58
2023/08/17 08:35:36;;;;;;;3.28;2.97;;;;;;;27.84;54.67;101261.97;21069521;28;20051;-58
2023/08/17 08:45:41;;;;;;;3.17;2.88;;;;;;;27.84;54.64;101258.31;21063909;28;20040;-58
2023/08/17 08:55:55;;;;;;;3.95;2.97;;;;;;;27.87;54.53;101266.13;21067196;28;20052;-59
2023/08/17 09:05:57;;;;;;;3.28;2.97;;;;;;;27.90;54.49;101268.28;21053601;28;20488;-58
2023/08/17 09:16:01;;;;;;;4.47;3.38;;;;;;;27.91;54.50;101277.56;21047571;28;20048;-58
2023/08/17 09:26:11;;;;;;;4.75;3.65;;;;;;;27.93;54.56;101280.88;21057124;28;20047;-57
2023/08/17 09:36:12;;;;;;;5.03;3.63;;;;;;;27.95;54.67;101295.44;21039864;28;20044;-58
2023/08/17 09:46:25;;;;;;;3.25;2.95;;;;;;;27.96;54.66;101302.75;21074856;28;20122;-57
2023/08/17 09:56:31;;;;;;;3.40;3.10;;;;;;;27.88;54.78;101286.66;21073253;28;20088;-58
2023/08/17 10:06:34;;;;;;;3.73;3.33;;;;;;;27.99;54.67;101307.72;21073739;28;20055;-58
2023/08/17 10:16:49;;;;;;;3.45;3.15;;;;;;;27.98;54.53;101317.31;21080045;28;20044;-57
2023/08/17 10:26:52;;;;;;;3.60;3.30;;;;;;;28.03;54.62;101334.06;21088917;28;20036;-59
2023/08/17 10:36:57;;;;;;;4.22;3.30;;;;;;;28.04;54.55;101335.72;21086739;28;20101;-59
2023/08/17 10:47:21;;;;;;;3.55;3.25;;;;;;;28.00;54.71;101327.09;21079475;28;20043;-59
2023/08/17 10:57:39;;;;;;;3.83;3.45;;;;;;;28.00;54.72;101326.28;21081675;28;20047;-57
2023/08/17 11:07:42;;;;;;;5.43;3.50;;;;;;;28.06;54.38;101327.81;21080503;28;20506;-59
2023/08/17 11:17:44;;;;;;;3.90;3.53;;;;;;;28.08;54.45;101357.25;21080443;28;20044;-59
2023/08/17 11:27:46;;;;;;;3.97;3.50;;;;;;;28.09;54.36;101352.50;21057433;28;20032;-58
2023/08/17 11:37:48;;;;;;;4.00;3.60;;;;;;;28.08;54.42;101345.19;21072922;28;20044;-58
2023/08/17 11:47:50;;;;;;;5.65;4.32;;;;;;;28.11;54.55;101347.38;21081221;28;20088;-59
2023/08/17 11:57:52;;;;;;;7.32;4.60;;;;;;;28.10;54.77;101354.16;21075971;28;20437;-59
2023/08/17 12:07:57;;;;;;;7.80;4.72;;;;;;;28.08;54.95;101356.44;21080776;28;20074;-59
2023/08/17 12:18:03;;;;;;;8.15;5.07;;;;;;;28.17;54.94;101377.00;21079568;28;20040;-59
2023/08/17 12:28:07;;;;;;;7.73;4.47;;;;;;;28.17;54.94;101376.19;21078892;28;20028;-58
2023/08/17 12:38:09;;;;;;;6.82;5.30;;;;;;;28.16;54.92;101369.75;21077298;28;20035;-58
2023/08/17 12:48:13;;;;;;;7.25;4.50;;;;;;;28.12;54.68;101371.53;21076126;28;20097;-58
2023/08/17 12:58:14;;;;;;;9.52;4.88;;;;;;;28.17;54.60;101377.00;21076901;28;20536;-59
2023/08/17 13:08:15;;;;;;;5.20;4.70;;;;;;;28.21;54.64;101380.84;21076598;28;20446;-57
2023/08/17 13:18:17;;;;;;;7.40;5.22;;;;;;;28.20;54.62;101375.56;21076509;28;20066;-58
2023/08/17 13:28:18;;;;;;;5.38;4.85;;;;;;;28.21;54.44;101371.59;21069762;28;20468;-59
2023/08/17 13:38:19;;;;;;;5.93;4.78;;;;;;;28.17;54.64;101354.50;21073844;28;20113;-59
2023/08/17 13:48:21;;;;;;;6.07;4.78;;;;;;;28.22;54.74;101362.00;21076649;28;20795;-58
2023/08/17 13:58:22;;;;;;;6.03;4.40;;;;;;;28.25;54.48;101334.03;21090871;28;20105;-59
2023/08/17 14:08:24;;;;;;;6.05;4.80;;;;;;;28.24;54.48;101309.88;21090651;28;20040;-58
2023/08/17 14:18:25;;;;;;;6.05;4.93;;;;;;;28.24;54.23;101309.88;21089441;28;20036;-59
2023/08/17 14:28:27;;;;;;;5.18;4.55;;;;;;;28.22;54.34;101295.28;21088629;28;20040;-58
2023/08/17 14:38:28;;;;;;;5.55;4.93;;;;;;;28.29;54.48;101295.66;21087531;28;20048;-58
2023/08/17 14:48:29;;;;;;;5.63;4.72;;;;;;;28.29;54.35;101273.16;21087314;28;20036;-59
2023/08/17 14:58:31;;;;;;;5.35;4.57;;;;;;;28.31;54.39;101270.81;21086255;28;20515;-58
2023/08/17 15:08:32;;;;;;;6.03;5.43;;;;;;;28.35;54.33;101254.16;21085027;28;20036;-59
2023/08/17 15:18:33;;;;;;;5.75;4.97;;;;;;;28.36;54.50;101261.44;21081309;28;20070;-59
2023/08/17 15:28:36;;;;;;;6.10;4.90;;;;;;;28.34;54.39;101232.78;21011229;28;20118;-59
2023/08/17 15:38:37;;;;;;;5.43;4.93;;;;;;;28.42;54.29;101236.81;20999360;28;20040;-59
2023/08/17 15:48:39;;;;;;;5.95;5.28;;;;;;;28.40;54.26;101210.97;20999260;28;20481;-59
2023/08/17 15:58:41;;;;;;;6.63;5.00;;;;;;;28.45;54.21;101213.63;20998079;28;20102;-59
2023/08/17 16:08:43;;;;;;;5.53;5.03;;;;;;;28.45;54.45;101202.38;20997354;28;20043;-60
2023/08/17 16:18:47;;;;;;;6.50;5.28;;;;;;;28.47;54.21;101211.34;20995673;28;20128;-59
2023/08/17 16:28:49;;;;;;;5.88;5.28;;;;;;;28.51;54.21;101195.44;20994951;28;20029;-59
2023/08/17 16:38:50;;;;;;;5.63;5.13;;;;;;;28.53;54.21;101199.59;20994138;28;20044;-58
2023/08/17 16:48:53;;;;;;;4.90;4.43;;;;;;;28.54;54.11;101172.25;20993797;28;20048;-58
2023/08/17 16:58:55;;;;;;;6.15;5.28;;;;;;;28.56;54.17;101155.88;20993051;28;20048;-58
2023/08/17 17:08:56;;;;;;;5.78;5.05;;;;;;;28.59;54.18;101142.00;20993183;28;20058;-58
2023/08/17 17:18:57;;;;;;;5.68;5.10;;;;;;;28.57;54.01;101120.94;20993197;28;20094;-59
2023/08/17 17:28:59;;;;;;;5.65;5.05;;;;;;;28.67;54.14;101120.59;21008318;28;20040;-58
2023/08/17 17:39:00;;;;;;;5.28;4.78;;;;;;;28.54;54.03;101082.16;21008894;28;20056;-59
2023/08/17 17:49:02;;;;;;;5.63;5.13;;;;;;;28.65;53.83;101083.53;21008016;28;20052;-61
2023/08/17 17:59:03;;;;;;;5.45;4.95;;;;;;;28.73;53.92;101084.69;21007270;28;20048;-59
2023/08/17 18:09:05;;;;;;;5.00;4.50;;;;;;;28.76;53.79;101069.94;21006603;28;20082;-59
2023/08/17 18:19:06;;;;;;;5.68;4.97;;;;;;;28.77;53.70;101063.13;21006154;28;20098;-59
2023/08/17 18:29:07;;;;;;;5.57;5.07;;;;;;;28.79;53.64;101041.94;21004991;28;20033;-60
2023/08/17 18:39:09;;;;;;;6.07;5.20;;;;;;;28.85;53.55;101031.31;21001996;28;20391;-58
2023/08/17 18:49:10;;;;;;;5.40;4.82;;;;;;;28.87;53.52;101023.38;21002817;28;20121;-57
2023/08/17 18:59:11;;;;;;;5.20;4.70;;;;;;;28.88;53.63;101011.78;21001896;28;20048;-58
2023/08/17 19:09:13;;;;;;;5.50;5.00;;;;;;;28.92;53.62;101013.94;21001695;28;20093;-59
2023/08/17 19:19:14;;;;;;;5.18;4.68;;;;;;;28.91;53.58;100996.22;21000517;28;20549;-59
2023/08/17 19:29:16;;;;;;;6.55;5.07;;;;;;;28.92;53.74;100971.69;21003706;28;20059;-60
2023/08/17 19:39:20;;;;;;;5.95;5.35;;;;;;;28.95;53.57;100951.28;20999284;28;20396;-58
2023/08/17 19:49:22;;;;;;;5.97;5.47;;;;;;;28.99;53.59;100944.66;20998800;28;20044;-60
2023/08/17 19:59:23;;;;;;;6.00;5.20;;;;;;;29.03;53.68;100930.72;20998046;28;20547;-57
2023/08/17 20:09:25;;;;;;;5.50;5.00;;;;;;;29.00;53.50;100911.69;20996721;28;20040;-59
2023/08/17 20:19:27;;;;;;;5.60;5.10;;;;;;;29.03;53.49;100919.47;20996111;28;20044;-59
2023/08/17 20:29:29;;;;;;;5.63;5.13;;;;;;;29.04;53.47;100923.94;20995235;28;20040;-58
2023/08/17 20:39:34;;;;;;;5.55;4.97;;;;;;;29.05;53.26;100922.78;20993156;28;20063;-59
2023/08/17 20:49:37;;;;;;;5.40;4.90;;;;;;;29.07;53.41;100910.00;20994592;28;20381;-59
2023/08/17 20:59:39;;;;;;;6.00;5.40;;;;;;;29.05;53.52;100895.44;20993127;28;20448;-59
2023/08/17 21:09:40;;;;;;;5.80;5.30;;;;;;;29.06;53.50;100901.91;20993389;28;20114;-59
2023/08/17 21:19:50;;;;;;;6.53;5.55;;;;;;;28.98;53.53;100894.31;20992566;28;20404;-58
2023/08/17 21:29:52;;;;;;;5.90;5.40;;;;;;;29.04;53.66;100899.41;20995696;28;20549;-58
2023/08/17 21:39:54;;;;;;;5.93;5.43;;;;;;;29.05;53.47;100894.63;20992287;28;20484;-60
2023/08/17 21:49:55;;;;;;;6.40;5.80;;;;;;;29.07;53.64;100886.63;20992022;28;20094;-58
2023/08/17 21:59:57;;;;;;;6.20;5.60;;;;;;;29.08;53.66;100899.56;20991245;28;20080;-58
2023/08/17 22:09:58;;;;;;;7.15;6.50;;;;;;;28.95;53.46;100880.84;20993713;28;20383;-58
2023/08/17 22:20:00;;;;;;;6.28;5.68;;;;;;;29.05;53.48;100883.34;21006144;28;20044;-59
2023/08/17 22:30:02;;;;;;;6.53;5.93;;;;;;;28.98;53.39;100860.50;21005708;28;20442;-58
2023/08/17 22:40:04;;;;;;;6.70;6.10;;;;;;;29.05;53.57;100874.91;21004270;28;20549;-57
2023/08/17 22:50:06;;;;;;;6.55;5.95;;;;;;;29.05;53.53;100884.16;21003062;28;20086;-59
2023/08/17 23:00:08;;;;;;;6.07;5.53;;;;;;;29.02;53.71;100881.19;21003103;28;20433;-59
2023/08/17 23:10:11;;;;;;;6.38;5.78;;;;;;;29.04;53.69;100888.13;21002609;28;20074;-59
2023/08/17 23:20:13;;;;;;;6.53;5.95;;;;;;;29.07;53.65;100887.47;21000983;28;20074;-58
2023/08/17 23:30:14;;;;;;;6.72;6.13;;;;;;;29.07;53.81;100881.00;21054759;28;20070;-58
2023/08/17 23:40:15;;;;;;;7.40;6.70;;;;;;;29.09;53.64;100895.56;21082993;28;20040;-58
2023/08/17 23:50:17;;;;;;;6.32;5.82;;;;;;;29.06;53.62;100879.34;21082089;28;20395;-58
